createdAt,value
2022-09-25T00:00:55.519Z,93894.28
2022-09-25T00:03:24.293Z,93894.91
2022-09-25T00:05:51.902Z,93896.75
2022-09-25T00:08:19.708Z,93888.28
2022-09-25T00:10:49.365Z,93884.75
2022-09-25T00:13:20.272Z,93889.53
2022-09-25T00:15:55.967Z,93892.75
2022-09-25T00:18:43.831Z,93898.84
2022-09-25T00:21:14.110Z,93894.25
2022-09-25T00:23:42.163Z,93883.66
2022-09-25T00:26:08.807Z,93884.25
2022-09-25T00:28:36.610Z,93892.38
2022-09-25T00:31:07.561Z,93879.47
2022-09-25T00:33:35.227Z,93881.63
2022-09-25T00:36:09.572Z,93879.78
2022-09-25T00:38:37.687Z,93877.19
2022-09-25T00:41:06.557Z,93881.94
2022-09-25T00:43:40.350Z,93882.84
2022-09-25T00:46:18.546Z,93877.16
2022-09-25T00:48:59.932Z,93879.31
2022-09-25T00:51:34.912Z,93875.47
2022-09-25T00:54:05.341Z,93872.47
2022-09-25T00:56:39.664Z,93882.44
2022-09-25T00:59:09.856Z,93877.06
2022-09-25T01:01:36.643Z,93876.44
2022-09-25T01:04:03.154Z,93865.38
2022-09-25T01:06:29.783Z,93857.84
2022-09-25T01:08:57.018Z,93854.78
2022-09-25T01:11:23.889Z,93857.22
2022-09-25T01:13:55.093Z,93860.59
2022-09-25T01:16:37.920Z,93860.28
2022-09-25T01:19:38.622Z,93855.38
2022-09-25T01:22:15.600Z,93854.16
2022-09-25T01:24:58.295Z,93846.94
2022-09-25T01:27:31.622Z,93838.63
2022-09-25T01:30:05.658Z,93849.03
2022-09-25T01:32:54.823Z,93847.34
2022-09-25T01:35:34.626Z,93851.28
2022-09-25T01:38:31.388Z,93853.72
2022-09-25T01:41:20.602Z,93845.16
2022-09-25T01:43:56.363Z,93845.16
2022-09-25T01:46:28.776Z,93837.00
2022-09-25T01:49:02.780Z,93844.53
2022-09-25T01:51:35.821Z,93844.06
2022-09-25T01:54:09.726Z,93854.16
2022-09-25T01:56:46.486Z,93852.91
2022-09-25T01:59:18.366Z,93855.81
2022-09-25T02:01:47.467Z,93849.53
2022-09-25T02:04:26.086Z,93847.41
2022-09-25T02:06:56.409Z,93858.28
2022-09-25T02:09:32.222Z,93854.63
2022-09-25T02:12:05.251Z,93850.97
2022-09-25T02:14:46.919Z,93847.44
2022-09-25T02:17:41.950Z,93847.63
2022-09-25T02:20:28.300Z,93843.31
2022-09-25T02:22:55.313Z,93843.31
2022-09-25T02:25:37.631Z,93853.16
2022-09-25T02:28:04.195Z,93844.69
2022-09-25T02:30:30.826Z,93849.13
2022-09-25T02:32:58.075Z,93850.38
2022-09-25T02:35:25.967Z,93844.28
2022-09-25T02:37:55.718Z,93839.25
2022-09-25T02:41:10.030Z,93835.13
2022-09-25T02:43:57.520Z,93842.81
2022-09-25T02:46:39.309Z,93845.09
2022-09-25T02:49:22.403Z,93845.28
2022-09-25T02:52:11.101Z,93842.84
2022-09-25T02:54:45.531Z,93844.06
2022-09-25T02:57:33.795Z,93838.84
2022-09-25T03:00:05.190Z,93841.00
2022-09-25T03:02:34.989Z,93842.38
2022-09-25T03:05:03.598Z,93852.81
2022-09-25T03:07:49.990Z,93850.94
2022-09-25T03:10:18.463Z,93844.66
2022-09-25T03:12:44.876Z,93848.22
2022-09-25T03:15:12.193Z,93846.53
2022-09-25T03:17:39.675Z,93848.09
2022-09-25T03:20:07.194Z,93829.84
2022-09-25T03:22:33.540Z,93829.69
2022-09-25T03:24:59.876Z,93825.41
2022-09-25T03:27:28.714Z,93824.53
2022-09-25T03:29:55.302Z,93829.41
2022-09-25T03:32:23.565Z,93828.66
2022-09-25T03:34:50.276Z,93823.13
2022-09-25T03:37:16.625Z,93818.84
2022-09-25T03:39:42.956Z,93812.25
2022-09-25T03:42:09.335Z,93811.94
2022-09-25T03:44:35.702Z,93814.56
2022-09-25T03:47:02.037Z,93811.63
2022-09-25T03:49:28.378Z,93810.25
2022-09-25T03:51:54.712Z,93819.03
2022-09-25T03:54:21.026Z,93819.03
2022-09-25T03:56:47.385Z,93812.75
2022-09-25T03:59:13.875Z,93807.53
2022-09-25T04:01:41.134Z,93814.25
2022-09-25T04:04:07.607Z,93814.72
2022-09-25T04:06:33.951Z,93826.69
2022-09-25T04:09:00.277Z,93828.41
2022-09-25T04:11:26.662Z,93833.28
2022-09-25T04:13:53.139Z,93831.91
2022-09-25T04:16:20.993Z,93829.75
2022-09-25T04:18:47.461Z,93821.47
2022-09-25T04:21:14.692Z,93822.53
2022-09-25T04:23:42.017Z,93823.03
2022-09-25T04:26:09.330Z,93819.66
2022-09-25T04:28:35.990Z,93824.53
2022-09-25T04:31:03.601Z,93817.03
2022-09-25T04:33:48.394Z,93814.88
2022-09-25T04:36:20.930Z,93815.47
2022-09-25T04:38:48.335Z,93821.94
2022-09-25T04:41:16.542Z,93819.94
2022-09-25T04:43:43.355Z,93817.94
2022-09-25T04:46:15.439Z,93818.09
2022-09-25T04:48:46.250Z,93827.94
2022-09-25T04:51:12.892Z,93838.84
2022-09-25T04:53:40.545Z,93838.53
2022-09-25T04:56:14.627Z,93839.78
2022-09-25T04:58:49.891Z,93832.56
2022-09-25T05:01:18.091Z,93832.38
2022-09-25T05:03:48.085Z,93833.78
2022-09-25T05:06:14.496Z,93839.75
2022-09-25T05:08:40.826Z,93837.59
2022-09-25T05:11:08.155Z,93838.38
2022-09-25T05:13:34.481Z,93826.88
2022-09-25T05:16:01.295Z,93826.56
2022-09-25T05:18:27.757Z,93821.06
2022-09-25T05:20:54.259Z,93833.47
2022-09-25T05:23:21.655Z,93821.06
2022-09-25T05:25:58.053Z,93824.72
2022-09-25T05:28:24.774Z,93830.41
2022-09-25T05:30:51.695Z,93827.34
2022-09-25T05:33:18.966Z,93823.66
2022-09-25T05:35:45.371Z,93831.50
2022-09-25T05:38:12.321Z,93830.72
2022-09-25T05:40:41.709Z,93824.25
2022-09-25T05:43:08.533Z,93830.56
2022-09-25T05:45:35.850Z,93830.88
2022-09-25T05:48:04.684Z,93831.63
2022-09-25T05:50:32.496Z,93837.31
2022-09-25T05:53:04.032Z,93825.50
2022-09-25T05:55:30.928Z,93829.63
2022-09-25T05:58:04.020Z,93829.78
2022-09-25T06:00:32.812Z,93826.28
2022-09-25T06:03:02.434Z,93818.56
2022-09-25T06:05:29.115Z,93819.06
2022-09-25T06:07:55.925Z,93821.66
2022-09-25T06:10:22.833Z,93828.56
2022-09-25T06:12:49.193Z,93831.19
2022-09-25T06:15:15.756Z,93830.72
2022-09-25T06:17:42.079Z,93833.16
2022-09-25T06:20:14.993Z,93829.78
2022-09-25T06:22:44.253Z,93824.13
2022-09-25T06:25:10.911Z,93829.94
2022-09-25T06:27:37.509Z,93821.03
2022-09-25T06:30:04.958Z,93817.06
2022-09-25T06:32:31.281Z,93825.03
2022-09-25T06:34:57.611Z,93821.81
2022-09-25T06:37:23.949Z,93825.19
2022-09-25T06:39:50.277Z,93830.41
2022-09-25T06:42:16.685Z,93831.97
2022-09-25T06:44:43.864Z,93835.00
2022-09-25T06:47:16.234Z,93834.56
2022-09-25T06:49:46.143Z,93840.25
2022-09-25T06:52:12.600Z,93830.56
2022-09-25T06:54:43.798Z,93851.31
2022-09-25T06:57:12.431Z,93845.00
2022-09-25T06:59:39.171Z,93846.38
2022-09-25T07:02:24.437Z,93848.09
2022-09-25T07:04:51.962Z,93848.69
2022-09-25T07:07:21.214Z,93842.53
2022-09-25T07:09:50.566Z,93847.00
2022-09-25T07:12:18.420Z,93836.25
2022-09-25T07:14:46.851Z,93840.22
2022-09-25T07:17:14.327Z,93840.69
2022-09-25T07:19:40.652Z,93839.59
2022-09-25T07:22:07.025Z,93841.91
2022-09-25T07:24:33.423Z,93843.44
2022-09-25T07:26:59.774Z,93846.38
2022-09-25T07:29:26.208Z,93853.88
2022-09-25T07:31:52.565Z,93852.50
2022-09-25T07:34:18.927Z,93852.50
2022-09-25T07:36:46.142Z,93846.81
2022-09-25T07:39:17.490Z,93852.50
2022-09-25T07:41:45.150Z,93848.97
2022-09-25T07:44:36.079Z,93851.88
2022-09-25T07:46:58.058Z,93859.25
2022-09-25T07:49:24.380Z,93854.19
2022-09-25T07:51:50.708Z,93850.31
2022-09-25T07:54:17.034Z,93848.03
2022-09-25T07:56:43.414Z,93855.69
2022-09-25T07:59:09.884Z,93851.25
2022-09-25T08:01:40.979Z,93850.63
2022-09-25T08:04:09.957Z,93852.78
2022-09-25T08:06:36.654Z,93853.84
2022-09-25T08:09:06.856Z,93847.69
2022-09-25T08:11:36.758Z,93850.31
2022-09-25T08:14:03.418Z,93846.91
2022-09-25T08:16:29.834Z,93844.41
2022-09-25T08:18:56.163Z,93840.50
2022-09-25T08:21:22.545Z,93840.44
2022-09-25T08:23:53.038Z,93836.13
2022-09-25T08:26:21.188Z,93834.88
2022-09-25T08:28:47.926Z,93847.34
2022-09-25T08:31:14.738Z,93853.47
2022-09-25T08:33:46.149Z,93848.38
2022-09-25T08:36:12.717Z,93839.13
2022-09-25T08:38:39.057Z,93838.94
2022-09-25T08:41:28.018Z,93835.25
2022-09-25T08:44:01.423Z,93840.91
2022-09-25T08:47:22.529Z,93832.78
2022-09-25T08:49:54.668Z,93833.09
2022-09-25T08:52:22.710Z,93822.38
2022-09-25T08:54:51.519Z,93825.78
2022-09-25T08:57:37.936Z,93819.44
2022-09-25T09:00:09.394Z,93829.44
2022-09-25T09:02:46.847Z,93825.03
2022-09-25T09:05:28.879Z,93825.59
2022-09-25T09:08:02.442Z,93829.41
2022-09-25T09:10:37.786Z,93821.19
2022-09-25T09:13:26.997Z,93823.81
2022-09-25T09:15:59.097Z,93819.47
2022-09-25T09:18:27.712Z,93825.28
2022-09-25T09:20:56.560Z,93817.97
2022-09-25T09:23:49.138Z,93820.38
2022-09-25T09:26:34.702Z,93821.78
2022-09-25T09:29:26.007Z,93832.88
2022-09-25T09:32:13.984Z,93827.50
2022-09-25T09:35:06.228Z,93827.97
2022-09-25T09:37:49.882Z,93819.84
2022-09-25T09:40:37.283Z,93823.81
2022-09-25T09:43:28.209Z,93820.97
2022-09-25T09:46:04.381Z,93817.97
2022-09-25T09:48:39.158Z,93825.41
2022-09-25T09:51:45.158Z,93825.94
2022-09-25T09:54:21.235Z,93822.81
2022-09-25T09:56:50.326Z,93812.88
2022-09-25T09:59:22.534Z,93818.34
2022-09-25T10:02:00.624Z,93820.75
2022-09-25T10:04:33.693Z,93816.47
2022-09-25T10:07:05.846Z,93816.78
2022-09-25T10:09:32.376Z,93808.28
2022-09-25T10:12:07.424Z,93806.84
2022-09-25T10:14:39.571Z,93814.31
2022-09-25T10:17:08.753Z,93811.03
2022-09-25T10:19:47.401Z,93809.47
2022-09-25T10:22:17.401Z,93808.16
2022-09-25T10:25:01.713Z,93813.84
2022-09-25T10:27:41.255Z,93813.19
2022-09-25T10:30:10.443Z,93808.34
2022-09-25T10:32:46.918Z,93810.44
2022-09-25T10:35:22.367Z,93799.38
2022-09-25T10:37:53.089Z,93802.44
2022-09-25T10:40:28.795Z,93808.44
2022-09-25T10:43:20.492Z,93802.78
2022-09-25T10:45:49.174Z,93803.97
2022-09-25T10:48:48.637Z,93810.97
2022-09-25T10:51:18.016Z,93807.06
2022-09-25T10:54:10.574Z,93811.84
2022-09-25T10:56:38.956Z,93814.94
2022-09-25T10:59:20.863Z,93831.47
2022-09-25T11:01:50.861Z,93819.19
2022-09-25T11:04:28.012Z,93816.38
2022-09-25T11:07:18.263Z,93812.97
2022-09-25T11:09:45.254Z,93816.78
2022-09-25T11:12:22.061Z,93817.78
2022-09-25T11:14:58.121Z,93819.84
2022-09-25T11:17:42.517Z,93818.63
2022-09-25T11:20:16.142Z,93814.03
2022-09-25T11:22:48.343Z,93817.97
2022-09-25T11:26:00.043Z,93828.41
2022-09-25T11:28:39.559Z,93819.75
2022-09-25T11:31:32.807Z,93817.00
2022-09-25T11:34:14.475Z,93818.66
2022-09-25T11:36:49.213Z,93817.66
2022-09-25T11:39:43.636Z,93810.56
2022-09-25T11:42:24.534Z,93806.44
2022-09-25T11:45:24.122Z,93799.97
2022-09-25T11:47:57.619Z,93798.09
2022-09-25T11:50:34.458Z,93793.72
2022-09-25T11:53:26.916Z,93790.44
2022-09-25T11:56:07.429Z,93796.66
2022-09-25T11:58:53.189Z,93795.81
2022-09-25T12:01:45.131Z,93786.97
2022-09-25T12:04:49.125Z,93784.34
2022-09-25T12:07:40.503Z,93783.44
2022-09-25T12:10:23.940Z,93784.53
2022-09-25T12:13:24.781Z,93779.50
2022-09-25T12:16:02.461Z,93781.56
2022-09-25T12:19:09.401Z,93784.72
2022-09-25T12:21:47.798Z,93777.03
2022-09-25T12:24:41.800Z,93786.63
2022-09-25T12:27:19.033Z,93791.38
2022-09-25T12:30:14.095Z,93781.94
2022-09-25T12:33:14.939Z,93783.81
2022-09-25T12:36:00.407Z,93780.50
2022-09-25T12:38:43.850Z,93782.13
2022-09-25T12:41:33.947Z,93775.25
2022-09-25T12:44:11.265Z,93776.44
2022-09-25T12:46:57.561Z,93770.91
2022-09-25T12:49:35.035Z,93780.91
2022-09-25T12:52:10.132Z,93786.41
2022-09-25T12:54:42.418Z,93781.97
2022-09-25T12:57:35.010Z,93781.78
2022-09-25T13:00:12.803Z,93779.56
2022-09-25T13:02:59.166Z,93775.81
2022-09-25T13:05:37.747Z,93767.34
2022-09-25T13:08:16.752Z,93761.91
2022-09-25T13:10:56.916Z,93774.06
2022-09-25T13:13:31.039Z,93774.84
2022-09-25T13:15:59.713Z,93762.47
2022-09-25T13:18:28.775Z,93769.59
2022-09-25T13:21:01.567Z,93763.41
2022-09-25T13:23:36.769Z,93761.47
2022-09-25T13:26:18.974Z,93758.44
2022-09-25T13:29:00.797Z,93769.91
2022-09-25T13:31:30.234Z,93761.81
2022-09-25T13:34:12.088Z,93765.69
2022-09-25T13:36:57.326Z,93765.84
2022-09-25T13:39:45.488Z,93773.81
2022-09-25T13:42:20.586Z,93772.94
2022-09-25T13:45:06.525Z,93768.13
2022-09-25T13:47:36.522Z,93771.97
2022-09-25T13:50:11.751Z,93759.50
2022-09-25T13:52:41.058Z,93767.44
2022-09-25T13:55:13.542Z,93776.16
2022-09-25T13:58:02.139Z,93766.34
2022-09-25T14:00:37.772Z,93768.19
2022-09-25T14:03:05.307Z,93772.00
2022-09-25T14:05:38.354Z,93767.97
2022-09-25T14:08:13.909Z,93770.41
2022-09-25T14:10:45.948Z,93760.91
2022-09-25T14:13:14.661Z,93764.28
2022-09-25T14:15:42.189Z,93760.88
2022-09-25T14:18:17.460Z,93755.00
2022-09-25T14:20:47.302Z,93755.97
2022-09-25T14:23:15.609Z,93763.19
2022-09-25T14:25:46.669Z,93760.66
2022-09-25T14:28:22.788Z,93755.81
2022-09-25T14:31:19.706Z,93750.78
2022-09-25T14:34:13.950Z,93751.41
2022-09-25T14:37:00.396Z,93748.56
2022-09-25T14:39:45.143Z,93747.25
2022-09-25T14:42:33.177Z,93754.41
2022-09-25T14:45:29.249Z,93749.38
2022-09-25T14:47:59.708Z,93746.63
2022-09-25T14:50:31.851Z,93747.09
2022-09-25T14:53:02.463Z,93745.03
2022-09-25T14:55:36.678Z,93736.97
2022-09-25T14:58:09.066Z,93737.44
2022-09-25T15:00:43.707Z,93740.31
2022-09-25T15:03:13.049Z,93739.03
2022-09-25T15:05:41.498Z,93742.41
2022-09-25T15:08:39.771Z,93734.88
2022-09-25T15:11:12.904Z,93720.34
2022-09-25T15:13:39.598Z,93719.97
2022-09-25T15:16:31.604Z,93710.44
2022-09-25T15:19:01.199Z,93712.56
2022-09-25T15:21:33.473Z,93721.75
2022-09-25T15:24:13.599Z,93717.41
2022-09-25T15:26:45.898Z,93714.22
2022-09-25T15:29:18.113Z,93709.69
2022-09-25T15:31:51.146Z,93716.44
2022-09-25T15:34:24.061Z,93704.94
2022-09-25T15:36:51.913Z,93712.81
2022-09-25T15:39:24.184Z,93713.72
2022-09-25T15:41:51.086Z,93714.69
2022-09-25T15:44:20.674Z,93719.41
2022-09-25T15:46:50.921Z,93713.56
2022-09-25T15:49:27.894Z,93717.66
2022-09-25T15:52:01.214Z,93713.97
2022-09-25T15:54:44.364Z,93710.41
2022-09-25T15:57:15.187Z,93715.69
2022-09-25T16:00:04.808Z,93716.59
2022-09-25T16:02:53.642Z,93726.78
2022-09-25T16:05:28.983Z,93733.16
2022-09-25T16:08:33.494Z,93750.88
2022-09-25T16:11:06.178Z,93737.88
2022-09-25T16:13:33.035Z,93736.88
2022-09-25T16:15:59.625Z,93743.59
2022-09-25T16:18:39.729Z,93739.84
2022-09-25T16:21:12.975Z,93737.94
2022-09-25T16:23:42.242Z,93741.22
2022-09-25T16:26:22.461Z,93741.09
2022-09-25T16:29:00.842Z,93744.25
2022-09-25T16:31:27.473Z,93736.88
2022-09-25T16:33:57.224Z,93738.38
2022-09-25T16:36:26.932Z,93738.13
2022-09-25T16:39:08.335Z,93739.44
2022-09-25T16:41:39.952Z,93745.84
2022-09-25T16:44:20.931Z,93743.19
2022-09-25T16:47:05.666Z,93739.75
2022-09-25T16:49:33.706Z,93742.28
2022-09-25T16:52:03.864Z,93750.50
2022-09-25T16:54:32.449Z,93743.78
2022-09-25T16:57:00.208Z,93740.66
2022-09-25T16:59:28.341Z,93744.81
2022-09-25T17:02:01.802Z,93742.91
2022-09-25T17:04:30.399Z,93748.75
2022-09-25T17:06:58.480Z,93740.94
2022-09-25T17:09:28.154Z,93751.47
2022-09-25T17:12:00.992Z,93746.16
2022-09-25T17:14:28.637Z,93755.78
2022-09-25T17:16:56.469Z,93754.94
2022-09-25T17:19:23.482Z,93751.59
2022-09-25T17:21:51.578Z,93759.16
2022-09-25T17:24:20.799Z,93761.06
2022-09-25T17:26:47.424Z,93762.97
2022-09-25T17:29:14.216Z,93762.03
2022-09-25T17:31:40.890Z,93760.97
2022-09-25T17:34:16.067Z,93765.59
2022-09-25T17:36:42.702Z,93771.44
2022-09-25T17:39:09.038Z,93775.44
2022-09-25T17:41:36.700Z,93772.25
2022-09-25T17:44:04.584Z,93770.72
2022-09-25T17:46:33.719Z,93774.25
2022-09-25T17:49:00.673Z,93774.69
2022-09-25T17:51:29.054Z,93772.53
2022-09-25T17:53:56.651Z,93783.63
2022-09-25T17:56:24.817Z,93789.91
2022-09-25T17:58:52.480Z,93792.53
2022-09-25T18:01:22.181Z,93790.97
2022-09-25T18:03:53.714Z,93792.09
2022-09-25T18:06:20.134Z,93790.97
2022-09-25T18:08:47.778Z,93790.53
2022-09-25T18:11:15.331Z,93792.53
2022-09-25T18:13:42.174Z,93787.63
2022-09-25T18:16:27.374Z,93793.13
2022-09-25T18:19:12.369Z,93786.84
2022-09-25T18:21:57.401Z,93786.06
2022-09-25T18:24:23.777Z,93786.84
2022-09-25T18:26:53.370Z,93785.28
2022-09-25T18:29:20.674Z,93791.59
2022-09-25T18:31:47.706Z,93783.16
2022-09-25T18:34:15.102Z,93785.00
2022-09-25T18:36:42.291Z,93789.16
2022-09-25T18:39:08.838Z,93780.88
2022-09-25T18:41:39.082Z,93787.03
2022-09-25T18:44:07.247Z,93787.22
2022-09-25T18:46:35.798Z,93793.81
2022-09-25T18:49:02.284Z,93785.06
2022-09-25T18:51:28.625Z,93792.91
2022-09-25T18:53:57.944Z,93784.63
2022-09-25T18:56:24.317Z,93792.28
2022-09-25T18:58:51.901Z,93785.69
2022-09-25T19:01:18.434Z,93789.84
2022-09-25T19:03:50.366Z,93795.69
2022-09-25T19:06:16.712Z,93790.91
2022-09-25T19:08:43.047Z,93798.13
2022-09-25T19:11:13.929Z,93802.75
2022-09-25T19:13:42.106Z,93808.44
2022-09-25T19:16:09.545Z,93811.22
2022-09-25T19:18:36.376Z,93811.38
2022-09-25T19:21:03.830Z,93825.66
2022-09-25T19:23:35.259Z,93817.81
2022-09-25T19:26:03.768Z,93828.88
2022-09-25T19:28:32.100Z,93823.94
2022-09-25T19:30:58.519Z,93827.63
2022-09-25T19:33:25.728Z,93831.75
2022-09-25T19:36:06.046Z,93813.97
2022-09-25T19:38:36.965Z,93827.16
2022-09-25T19:41:10.688Z,93832.72
2022-09-25T19:43:37.438Z,93832.72
2022-09-25T19:46:04.525Z,93829.31
2022-09-25T19:48:32.324Z,93829.50
2022-09-25T19:50:58.769Z,93831.78
2022-09-25T19:53:25.160Z,93832.56
2022-09-25T19:55:52.928Z,93825.03
2022-09-25T19:58:23.128Z,93831.78
2022-09-25T20:00:50.653Z,93826.28
2022-09-25T20:03:17.915Z,93826.28
2022-09-25T20:05:44.701Z,93830.41
2022-09-25T20:08:11.318Z,93825.63
2022-09-25T20:10:38.146Z,93823.03
2022-09-25T20:13:05.309Z,93819.34
2022-09-25T20:15:32.268Z,93819.34
2022-09-25T20:17:59.394Z,93826.41
2022-09-25T20:20:27.513Z,93817.22
2022-09-25T20:22:53.917Z,93823.34
2022-09-25T20:25:20.805Z,93815.06
2022-09-25T20:27:52.180Z,93817.50
2022-09-25T20:30:19.013Z,93815.94
2022-09-25T20:32:45.797Z,93809.22
2022-09-25T20:35:12.655Z,93818.09
2022-09-25T20:37:39.090Z,93812.44
2022-09-25T20:40:05.780Z,93811.50
2022-09-25T20:42:33.788Z,93814.72
2022-09-25T20:45:00.149Z,93813.47
2022-09-25T20:47:33.683Z,93816.41
2022-09-25T20:50:00.713Z,93816.69
2022-09-25T20:52:27.754Z,93815.00
2022-09-25T20:54:54.194Z,93805.19
2022-09-25T20:57:20.587Z,93796.59
2022-09-25T20:59:46.932Z,93794.63
2022-09-25T21:02:13.793Z,93799.84
2022-09-25T21:04:40.309Z,93807.66
2022-09-25T21:07:06.727Z,93814.72
2022-09-25T21:09:33.099Z,93808.72
2022-09-25T21:11:59.859Z,93811.78
2022-09-25T21:14:28.418Z,93810.41
2022-09-25T21:16:58.947Z,93802.13
2022-09-25T21:19:26.975Z,93815.47
2022-09-25T21:21:53.447Z,93811.81
2022-09-25T21:24:21.008Z,93805.53
2022-09-25T21:26:47.805Z,93808.75
2022-09-25T21:29:16.060Z,93809.50
2022-09-25T21:31:48.438Z,93804.28
2022-09-25T21:34:16.085Z,93805.53
2022-09-25T21:36:43.499Z,93805.19
2022-09-25T21:39:09.890Z,93809.03
2022-09-25T21:41:36.344Z,93809.50
2022-09-25T21:44:06.857Z,93804.28
2022-09-25T21:46:34.542Z,93802.44
2022-09-25T21:49:03.361Z,93804.44
2022-09-25T21:51:33.031Z,93810.88
2022-09-25T21:54:00.935Z,93805.53
2022-09-25T21:56:29.857Z,93798.59
2022-09-25T21:58:57.635Z,93796.31
2022-09-25T22:01:27.157Z,93805.19
2022-09-25T22:03:56.652Z,93803.38
2022-09-25T22:06:28.465Z,93802.44
2022-09-25T22:08:57.321Z,93796.75
2022-09-25T22:11:24.368Z,93799.34
2022-09-25T22:13:51.579Z,93800.91
2022-09-25T22:16:22.824Z,93795.97
2022-09-25T22:18:53.584Z,93799.34
2022-09-25T22:21:22.804Z,93798.13
2022-09-25T22:23:49.864Z,93794.63
2022-09-25T22:26:17.321Z,93800.28
2022-09-25T22:28:44.508Z,93808.88
2022-09-25T22:31:16.967Z,93803.66
2022-09-25T22:33:44.615Z,93808.13
2022-09-25T22:36:12.390Z,93793.06
2022-09-25T22:38:39.691Z,93798.56
2022-09-25T22:41:11.519Z,93797.06
2022-09-25T22:43:39.144Z,93795.06
2022-09-25T22:46:06.843Z,93794.44
2022-09-25T22:48:34.044Z,93798.88
2022-09-25T22:51:10.136Z,93787.69
2022-09-25T22:53:37.242Z,93791.22
2022-09-25T22:56:20.077Z,93794.09
2022-09-25T22:58:49.713Z,93794.09
2022-09-25T23:01:46.382Z,93797.81
2022-09-25T23:04:16.012Z,93806.22
2022-09-25T23:06:43.097Z,93794.38
2022-09-25T23:09:20.151Z,93800.81
2022-09-25T23:11:46.902Z,93807.41
2022-09-25T23:14:16.855Z,93794.09
2022-09-25T23:16:45.131Z,93793.59
2022-09-25T23:19:12.043Z,93786.56
2022-09-25T23:21:39.122Z,93789.16
2022-09-25T23:24:08.376Z,93790.72
2022-09-25T23:26:34.886Z,93787.59
2022-09-25T23:29:02.106Z,93788.09
2022-09-25T23:31:30.526Z,93786.72
2022-09-25T23:34:01.198Z,93785.50
2022-09-25T23:36:29.048Z,93782.41
2022-09-25T23:38:58.293Z,93779.78
2022-09-25T23:41:30.024Z,93778.09
2022-09-25T23:43:57.492Z,93786.69
2022-09-25T23:46:26.302Z,93778.88
2022-09-25T23:48:53.701Z,93773.50
2022-09-25T23:51:22.522Z,93771.97
2022-09-25T23:53:49.853Z,93773.81
2022-09-25T23:56:21.824Z,93780.09
2022-09-25T23:58:49.380Z,93764.41
